Time;durP1;ratioP1;P1;durP2;ratioP2;P2;SDS_P1;SDS_P2;PMS_P1;PMS_P2;Temp;Humidity;BMP_temperature;BMP_pressure;BME280_temperature;BME280_humidity;BME280_pressure;Samples;Min_cycle;Max_cycle;Signal;HPM_P1;HPM_P2
2022/07/14 00:01:45;;;;;;;;;;;14.10;99.90;;;;;;5155143;27;19927;-77
2022/07/14 00:04:11;;;;;;;;;;;14.10;99.90;;;;;;5135923;27;20587;-77
2022/07/14 00:06:36;;;;;;;;;;;14.10;99.90;;;;;;5136814;27;20009;-77
2022/07/14 00:09:02;;;;;;;;;;;14.10;99.90;;;;;;5154685;27;20435;-77
2022/07/14 00:11:28;;;;;;;;;;;14.00;99.90;;;;;;5135758;27;19923;-77
2022/07/14 00:13:54;;;;;;;;;;;14.10;99.90;;;;;;5155004;27;20071;-78
2022/07/14 00:16:19;;;;;;;;;;;14.00;99.90;;;;;;5136554;27;19930;-77
2022/07/14 00:18:45;;;;;;;;;;;14.00;99.90;;;;;;5154474;27;19927;-77
2022/07/14 00:21:11;;;;;;;;;;;13.90;99.90;;;;;;5137402;27;19923;-77
2022/07/14 00:23:36;;;;;;;;;;;13.90;99.90;;;;;;5156224;27;19926;-78
2022/07/14 00:26:03;;;;;;;;;;;13.90;99.90;;;;;;5152152;27;19926;-77
2022/07/14 00:28:28;;;;;;;;;;;13.90;99.90;;;;;;5139165;27;19927;-77
2022/07/14 00:30:54;;;;;;;;;;;13.80;99.90;;;;;;5137720;27;19929;-78
2022/07/14 00:33:19;;;;;;;;;;;13.80;99.90;;;;;;5136423;27;19927;-78
2022/07/14 00:35:45;;;;;;;;;;;13.80;99.90;;;;;;5155716;27;20465;-78
2022/07/14 00:38:11;;;;;;;;;;;13.70;99.90;;;;;;5157130;27;19923;-79
2022/07/14 00:40:36;;;;;;;;;;;13.70;99.90;;;;;;5153966;27;19923;-80
2022/07/14 00:43:03;;;;;;;;;;;13.70;99.90;;;;;;5136931;27;19975;-79
2022/07/14 00:45:28;;;;;;;;;;;13.60;99.90;;;;;;5158367;27;19923;-80
2022/07/14 00:47:54;;;;;;;;;;;13.50;99.90;;;;;;5137466;27;19923;-80
2022/07/14 00:50:19;;;;;;;;;;;14.10;99.90;;;;;;5137809;27;19978;-79
2022/07/14 00:52:46;;;;;;;;;;;13.50;99.90;;;;;;5138176;27;19923;-78
2022/07/14 00:55:15;;;;;;;;;;;13.50;99.90;;;;;;5139020;27;19956;-79
2022/07/14 00:57:41;;;;;;;;;;;13.40;99.90;;;;;;5164329;27;19930;-79
2022/07/14 01:00:08;;;;;;;;;;;13.60;99.90;;;;;;5161303;27;19923;-78
2022/07/14 01:02:33;;;;;;;;;;;13.40;99.90;;;;;;5135951;27;19922;-79
2022/07/14 01:04:59;;;;;;;;;;;13.30;99.90;;;;;;5142394;27;20389;-79
2022/07/14 01:07:25;;;;;;;;;;;13.20;99.90;;;;;;5160490;27;20044;-80
2022/07/14 01:09:50;;;;;;;;;;;13.20;99.90;;;;;;5142090;27;19930;-79
2022/07/14 01:12:16;;;;;;;;;;;13.10;99.90;;;;;;5146121;27;19931;-79
2022/07/14 01:14:42;;;;;;;;;;;13.10;99.90;;;;;;5158869;27;19933;-80
2022/07/14 01:17:08;;;;;;;;;;;13.10;99.90;;;;;;5143828;27;19929;-80
2022/07/14 01:19:33;;;;;;;;;;;13.00;99.90;;;;;;5143254;27;19922;-80
2022/07/14 01:21:59;;;;;;;;;;;13.00;99.90;;;;;;5145223;27;19930;-79
2022/07/14 01:24:25;;;;;;;;;;;12.90;99.90;;;;;;5143693;27;20018;-80
2022/07/14 01:26:51;;;;;;;;;;;13.10;99.90;;;;;;5158054;27;19923;-79
2022/07/14 01:29:17;;;;;;;;;;;12.90;99.90;;;;;;5164852;27;19923;-80
2022/07/14 01:31:43;;;;;;;;;;;12.90;99.90;;;;;;5161413;27;21359;-79
2022/07/14 01:34:09;;;;;;;;;;;12.90;99.90;;;;;;5142134;27;20349;-79
2022/07/14 01:36:34;;;;;;;;;;;12.80;99.90;;;;;;5166431;27;19927;-79
2022/07/14 01:39:00;;;;;;;;;;;12.80;99.90;;;;;;5149503;27;19930;-79
2022/07/14 01:41:26;;;;;;;;;;;12.80;99.90;;;;;;5166591;27;19923;-80
2022/07/14 01:43:52;;;;;;;;;;;12.70;99.90;;;;;;5149890;27;19968;-80
2022/07/14 01:46:18;;;;;;;;;;;12.70;99.90;;;;;;5146427;27;19923;-80
2022/07/14 01:48:44;;;;;;;;;;;12.70;99.90;;;;;;5147093;27;19930;-78
2022/07/14 01:51:09;;;;;;;;;;;12.60;99.90;;;;;;5148484;27;20077;-78
2022/07/14 01:53:35;;;;;;;;;;;12.50;99.90;;;;;;5167155;27;20289;-77
2022/07/14 01:56:00;;;;;;;;;;;12.50;99.90;;;;;;5147487;27;19923;-77
2022/07/14 01:58:26;;;;;;;;;;;12.40;99.90;;;;;;5149055;27;19984;-79
2022/07/14 02:03:36;;;;;;;;;;;12.40;99.90;;;;;;5149478;27;19923;-78
2022/07/14 02:06:04;;;;;;;;;;;12.50;99.90;;;;;;5166080;27;19923;-79
2022/07/14 02:08:30;;;;;;;;;;;12.40;99.90;;;;;;5148731;27;19930;-79
2022/07/14 02:13:40;;;;;;;;;;;12.40;99.90;;;;;;5168909;27;19922;-79
2022/07/14 02:16:06;;;;;;;;;;;12.40;99.90;;;;;;5163430;27;19982;-77
2022/07/14 02:18:31;;;;;;;;;;;12.40;99.90;;;;;;5144841;27;20352;-78
2022/07/14 02:20:57;;;;;;;;;;;12.40;99.90;;;;;;5166543;27;20105;-78
2022/07/14 02:23:23;;;;;;;;;;;12.40;99.90;;;;;;5149467;27;20358;-78
2022/07/14 02:25:49;;;;;;;;;;;13.30;99.90;;;;;;5146160;27;20002;-79
2022/07/14 02:28:14;;;;;;;;;;;12.30;99.90;;;;;;5150098;27;20010;-79
2022/07/14 02:30:40;;;;;;;;;;;12.30;99.90;;;;;;5164160;27;19923;-78
2022/07/14 02:33:06;;;;;;;;;;;12.30;99.90;;;;;;5163773;27;20014;-79
2022/07/14 02:35:31;;;;;;;;;;;12.30;99.90;;;;;;5146534;27;19923;-77
2022/07/14 02:37:57;;;;;;;;;;;12.20;99.90;;;;;;5166656;27;20031;-78
2022/07/14 02:40:23;;;;;;;;;;;12.20;99.90;;;;;;5163535;27;19927;-78
2022/07/14 02:42:48;;;;;;;;;;;12.20;99.90;;;;;;5167309;27;20011;-78
2022/07/14 02:45:14;;;;;;;;;;;12.10;99.90;;;;;;5145685;27;19923;-78
2022/07/14 02:47:39;;;;;;;;;;;12.10;99.90;;;;;;5144678;27;19923;-77
2022/07/14 02:50:05;;;;;;;;;;;12.30;99.90;;;;;;5167979;27;19978;-78
2022/07/14 02:52:31;;;;;;;;;;;12.10;99.90;;;;;;5145704;27;19919;-79
2022/07/14 02:54:56;;;;;;;;;;;12.00;99.90;;;;;;5147132;27;20009;-77
2022/07/14 02:57:22;;;;;;;;;;;11.90;99.90;;;;;;5147395;27;19923;-78
2022/07/14 02:59:47;;;;;;;;;;;12.30;99.90;;;;;;5145964;27;20064;-78
2022/07/14 03:02:13;;;;;;;;;;;12.00;99.90;;;;;;5144537;27;19922;-78
2022/07/14 03:04:39;;;;;;;;;;;11.90;99.90;;;;;;5145847;27;19923;-77
2022/07/14 03:07:04;;;;;;;;;;;11.90;99.90;;;;;;5167705;27;19922;-77
2022/07/14 03:09:30;;;;;;;;;;;11.90;99.90;;;;;;5144855;27;19923;-77
2022/07/14 03:11:55;;;;;;;;;;;11.90;99.90;;;;;;5166200;27;19968;-77
2022/07/14 03:14:21;;;;;;;;;;;11.90;99.90;;;;;;5146208;27;19927;-77
2022/07/14 03:16:46;;;;;;;;;;;11.80;99.90;;;;;;5163226;27;19927;-77
2022/07/14 03:19:13;;;;;;;;;;;11.80;99.90;;;;;;5145956;27;19959;-78
2022/07/14 03:21:39;;;;;;;;;;;11.70;99.90;;;;;;5165642;27;19923;-77
2022/07/14 03:24:05;;;;;;;;;;;11.60;99.90;;;;;;5144921;27;19968;-77
2022/07/14 03:26:31;;;;;;;;;;;11.80;99.90;;;;;;5148492;27;20393;-77
2022/07/14 03:28:56;;;;;;;;;;;11.70;99.90;;;;;;5144234;27;19930;-79
2022/07/14 03:31:22;;;;;;;;;;;11.70;99.90;;;;;;5144876;27;19929;-78
2022/07/14 03:33:47;;;;;;;;;;;11.70;99.90;;;;;;5146711;27;20270;-79
2022/07/14 03:36:13;;;;;;;;;;;11.70;99.90;;;;;;5145509;27;19964;-78
2022/07/14 03:38:39;;;;;;;;;;;11.60;99.90;;;;;;5164628;27;19923;-78
2022/07/14 03:41:05;;;;;;;;;;;11.90;99.90;;;;;;5166284;27;20301;-79
2022/07/14 03:43:36;;;;;;;;;;;11.60;99.90;;;;;;5162278;27;19924;-79
2022/07/14 03:46:02;;;;;;;;;;;12.80;99.90;;;;;;5140580;27;19923;-79
2022/07/14 03:48:28;;;;;;;;;;;11.60;99.90;;;;;;5144340;27;19923;-79
2022/07/14 03:50:54;;;;;;;;;;;11.60;99.90;;;;;;5165558;27;20294;-79
2022/07/14 03:53:20;;;;;;;;;;;11.60;99.90;;;;;;5163737;27;19931;-78
2022/07/14 03:55:45;;;;;;;;;;;11.60;99.90;;;;;;5165569;27;20430;-78
2022/07/14 03:58:11;;;;;;;;;;;11.70;99.90;;;;;;5144574;27;20029;-78
2022/07/14 04:00:37;;;;;;;;;;;11.80;99.90;;;;;;5144293;27;20293;-78
2022/07/14 04:03:02;;;;;;;;;;;11.70;99.90;;;;;;5144849;27;19923;-78
2022/07/14 04:05:28;;;;;;;;;;;11.80;99.90;;;;;;5165267;27;19923;-78
2022/07/14 04:07:53;;;;;;;;;;;11.80;99.90;;;;;;5144189;27;20286;-78
2022/07/14 04:10:19;;;;;;;;;;;11.80;99.90;;;;;;5166218;27;19923;-78
2022/07/14 04:12:44;;;;;;;;;;;11.80;99.90;;;;;;5162567;27;20333;-78
2022/07/14 04:15:10;;;;;;;;;;;11.90;99.90;;;;;;5145754;27;19973;-82
2022/07/14 04:17:36;;;;;;;;;;;11.90;99.90;;;;;;5144750;27;20327;-81
2022/07/14 04:20:02;;;;;;;;;;;11.90;99.90;;;;;;5144486;27;19930;-81
2022/07/14 04:22:28;;;;;;;;;;;12.00;99.90;;;;;;5165620;27;19923;-80
2022/07/14 04:24:54;;;;;;;;;;;12.20;99.90;;;;;;5161303;27;19974;-76
2022/07/14 04:27:19;;;;;;;;;;;12.00;99.90;;;;;;5155565;27;19972;-79
2022/07/14 04:29:45;;;;;;;;;;;12.00;99.90;;;;;;5163419;27;19994;-80
2022/07/14 04:32:11;;;;;;;;;;;12.00;99.90;;;;;;5163747;27;19923;-78
2022/07/14 04:34:37;;;;;;;;;;;12.10;99.90;;;;;;5161287;27;20441;-79
2022/07/14 04:37:03;;;;;;;;;;;12.10;99.90;;;;;;5163487;27;20009;-79
2022/07/14 04:39:28;;;;;;;;;;;12.10;99.90;;;;;;5140412;27;20317;-79
2022/07/14 04:41:54;;;;;;;;;;;12.40;99.90;;;;;;5143639;27;19923;-79
2022/07/14 04:44:19;;;;;;;;;;;12.20;99.90;;;;;;5161329;27;19923;-78
2022/07/14 04:46:45;;;;;;;;;;;12.20;99.90;;;;;;5146319;27;19927;-78
2022/07/14 04:52:01;;;;;;;;;;;12.30;99.90;;;;;;5141084;27;19979;-79
2022/07/14 04:54:27;;;;;;;;;;;12.70;99.90;;;;;;5145551;27;19930;-79
2022/07/14 04:56:52;;;;;;;;;;;12.30;99.90;;;;;;5143965;27;19923;-78
2022/07/14 04:59:18;;;;;;;;;;;12.20;99.90;;;;;;5163625;27;19923;-78
2022/07/14 05:01:43;;;;;;;;;;;12.30;99.90;;;;;;5157454;27;19919;-78
2022/07/14 05:04:09;;;;;;;;;;;12.30;99.90;;;;;;5146397;27;20322;-79
2022/07/14 05:06:35;;;;;;;;;;;12.30;99.90;;;;;;5163146;27;20377;-79
2022/07/14 05:09:01;;;;;;;;;;;12.40;99.90;;;;;;5144396;27;19920;-79
2022/07/14 05:11:27;;;;;;;;;;;12.50;99.90;;;;;;5148846;27;19929;-79
2022/07/14 05:13:53;;;;;;;;;;;12.50;99.90;;;;;;5165979;27;20005;-79
2022/07/14 05:16:18;;;;;;;;;;;12.60;99.90;;;;;;5163022;27;19923;-78
2022/07/14 05:18:47;;;;;;;;;;;12.70;99.90;;;;;;5161755;27;19923;-79
2022/07/14 05:21:13;;;;;;;;;;;12.80;99.90;;;;;;5149894;27;20297;-79
2022/07/14 05:23:38;;;;;;;;;;;12.80;99.90;;;;;;5165979;27;19923;-79
2022/07/14 05:26:11;;;;;;;;;;;12.90;99.90;;;;;;5150121;27;19934;-79
2022/07/14 05:28:36;;;;;;;;;;;13.00;99.90;;;;;;5145674;27;20297;-79
2022/07/14 05:31:02;;;;;;;;;;;13.10;99.90;;;;;;5166533;27;19922;-79
2022/07/14 05:33:27;;;;;;;;;;;13.20;99.90;;;;;;5167687;27;19926;-79
2022/07/14 05:35:54;;;;;;;;;;;13.60;99.90;;;;;;5149610;27;19923;-78
2022/07/14 05:38:20;;;;;;;;;;;13.40;99.90;;;;;;5167913;27;19929;-78
2022/07/14 05:40:46;;;;;;;;;;;13.50;99.90;;;;;;5166240;27;20434;-78
2022/07/14 05:43:11;;;;;;;;;;;13.60;99.90;;;;;;5165858;27;19923;-77
2022/07/14 05:45:37;;;;;;;;;;;13.70;99.90;;;;;;5150767;27;19980;-77
2022/07/14 05:48:03;;;;;;;;;;;13.80;99.90;;;;;;5165283;27;19971;-81
2022/07/14 05:50:28;;;;;;;;;;;13.80;99.90;;;;;;5167455;27;19923;-77
2022/07/14 05:52:54;;;;;;;;;;;13.90;99.90;;;;;;5164180;27;20010;-79
2022/07/14 05:55:21;;;;;;;;;;;14.00;99.90;;;;;;5167646;27;20287;-81
2022/07/14 05:57:47;;;;;;;;;;;14.10;99.90;;;;;;5146947;27;20002;-73
2022/07/14 06:00:12;;;;;;;;;;;14.20;99.90;;;;;;5145648;27;20017;-75
2022/07/14 06:02:38;;;;;;;;;;;14.20;99.90;;;;;;5168818;27;20373;-77
2022/07/14 06:05:03;;;;;;;;;;;14.30;99.90;;;;;;5141498;27;19923;-77
2022/07/14 06:07:29;;;;;;;;;;;14.40;99.90;;;;;;5150007;27;19930;-77
2022/07/14 06:09:54;;;;;;;;;;;14.50;99.90;;;;;;5147534;27;19922;-76
2022/07/14 06:12:20;;;;;;;;;;;14.90;99.90;;;;;;5166370;27;19923;-76
2022/07/14 06:14:45;;;;;;;;;;;14.70;99.90;;;;;;5167277;27;19926;-77
2022/07/14 06:17:11;;;;;;;;;;;14.80;99.90;;;;;;5163377;27;20029;-77
2022/07/14 06:19:37;;;;;;;;;;;14.90;99.90;;;;;;5165081;27;19974;-77
2022/07/14 06:22:03;;;;;;;;;;;15.00;99.90;;;;;;5148901;27;19930;-77
2022/07/14 06:24:29;;;;;;;;;;;15.10;99.90;;;;;;5149366;27;19923;-77
2022/07/14 06:26:54;;;;;;;;;;;15.40;99.90;;;;;;5146641;27;19929;-78
2022/07/14 06:29:20;;;;;;;;;;;15.90;99.90;;;;;;5167082;27;19930;-78
2022/07/14 06:31:46;;;;;;;;;;;15.70;99.90;;;;;;5147237;27;19927;-77
2022/07/14 06:34:11;;;;;;;;;;;16.00;99.90;;;;;;5164130;27;19922;-77
2022/07/14 06:36:37;;;;;;;;;;;16.20;99.90;;;;;;5146213;27;20374;-77
2022/07/14 06:39:02;;;;;;;;;;;16.30;99.90;;;;;;5166950;27;19930;-77
2022/07/14 06:41:28;;;;;;;;;;;16.60;99.90;;;;;;5145787;27;19923;-77
2022/07/14 06:43:53;;;;;;;;;;;16.70;99.90;;;;;;5148886;27;19927;-77
2022/07/14 06:46:19;;;;;;;;;;;16.90;99.90;;;;;;5164751;27;19927;-77
2022/07/14 06:48:47;;;;;;;;;;;17.00;99.90;;;;;;5146817;27;19923;-77
2022/07/14 06:51:13;;;;;;;;;;;17.20;99.90;;;;;;5165697;27;20022;-78
2022/07/14 06:53:38;;;;;;;;;;;17.50;99.90;;;;;;5147107;27;20413;-78
2022/07/14 06:56:04;;;;;;;;;;;17.70;99.90;;;;;;5163947;27;20025;-77
2022/07/14 06:58:30;;;;;;;;;;;17.80;99.90;;;;;;5163494;27;20006;-78
2022/07/14 07:00:56;;;;;;;;;;;17.90;99.90;;;;;;5148044;27;20365;-77
2022/07/14 07:03:21;;;;;;;;;;;18.00;99.90;;;;;;5146085;27;20370;-77
2022/07/14 07:08:31;;;;;;;;;;;18.00;99.90;;;;;;5142646;27;19922;-77
2022/07/14 07:10:57;;;;;;;;;;;18.10;99.90;;;;;;5145144;27;20013;-77
2022/07/14 07:13:29;;;;;;;;;;;18.10;99.90;;;;;;5148320;27;19923;-77
2022/07/14 07:15:55;;;;;;;;;;;18.20;99.90;;;;;;5159850;27;20289;-78
2022/07/14 07:18:20;;;;;;;;;;;18.20;99.90;;;;;;5163809;27;19930;-79
2022/07/14 07:20:46;;;;;;;;;;;18.50;99.90;;;;;;5166466;27;19919;-79
2022/07/14 07:23:11;;;;;;;;;;;18.70;99.90;;;;;;5164250;27;20005;-78
2022/07/14 07:25:37;;;;;;;;;;;18.90;99.90;;;;;;5147256;27;19923;-79
2022/07/14 07:28:03;;;;;;;;;;;19.20;99.90;;;;;;5129182;27;19919;-80
2022/07/14 07:30:28;;;;;;;;;;;19.40;99.90;;;;;;5145682;27;19930;-79
2022/07/14 07:32:54;;;;;;;;;;;19.70;99.90;;;;;;5145307;27;20370;-79
2022/07/14 07:35:20;;;;;;;;;;;20.00;99.90;;;;;;5148110;27;20373;-78
2022/07/14 07:37:46;;;;;;;;;;;20.40;99.90;;;;;;5163390;27;19927;-79
2022/07/14 07:40:11;;;;;;;;;;;20.70;99.90;;;;;;5147107;27;20398;-78
2022/07/14 07:42:37;;;;;;;;;;;20.80;99.90;;;;;;5164043;27;20017;-78
2022/07/14 07:45:03;;;;;;;;;;;21.00;99.90;;;;;;5164431;27;20091;-79
2022/07/14 07:47:28;;;;;;;;;;;21.10;99.90;;;;;;5147094;27;19965;-78
2022/07/14 07:49:54;;;;;;;;;;;21.00;99.70;;;;;;5138679;27;19923;-78
2022/07/14 07:52:20;;;;;;;;;;;21.00;99.90;;;;;;5145034;27;19923;-78
2022/07/14 07:54:46;;;;;;;;;;;21.00;99.90;;;;;;5140647;27;19934;-79
2022/07/14 07:57:12;;;;;;;;;;;21.10;99.80;;;;;;5146321;27;19923;-78
2022/07/14 07:59:38;;;;;;;;;;;21.20;99.90;;;;;;5144537;27;19923;-78
2022/07/14 08:02:04;;;;;;;;;;;21.20;99.00;;;;;;5145050;27;19925;-78
2022/07/14 08:04:29;;;;;;;;;;;21.20;99.50;;;;;;5145509;27;20297;-77
2022/07/14 08:06:55;;;;;;;;;;;21.20;99.70;;;;;;5145903;27;19919;-79
2022/07/14 08:09:21;;;;;;;;;;;21.20;99.60;;;;;;5144301;27;20010;-78
2022/07/14 08:11:47;;;;;;;;;;;21.10;98.60;;;;;;5143162;27;19923;-78
2022/07/14 08:16:56;;;;;;;;;;;21.50;98.20;;;;;;5142022;27;19923;-76
2022/07/14 08:19:22;;;;;;;;;;;21.80;98.70;;;;;;5142445;27;19929;-77
2022/07/14 08:21:48;;;;;;;;;;;21.90;98.30;;;;;;5162917;27;20335;-77
2022/07/14 08:24:13;;;;;;;;;;;21.80;98.50;;;;;;5142233;27;19924;-76
2022/07/14 08:26:39;;;;;;;;;;;21.70;98.80;;;;;;5165700;27;19922;-77
2022/07/14 08:29:06;;;;;;;;;;;21.70;99.10;;;;;;5141106;27;19975;-75
2022/07/14 08:31:31;;;;;;;;;;;21.50;98.20;;;;;;5164196;27;20017;-74
2022/07/14 08:33:57;;;;;;;;;;;21.40;98.30;;;;;;5163577;27;20006;-73
2022/07/14 08:36:22;;;;;;;;;;;21.60;98.60;;;;;;5164034;27;19930;-75
2022/07/14 08:38:48;;;;;;;;;;;22.00;99.10;;;;;;5145824;27;19927;-77
2022/07/14 08:41:14;;;;;;;;;;;22.50;97.70;;;;;;5161388;27;20349;-72
2022/07/14 08:43:40;;;;;;;;;;;22.80;97.50;;;;;;5143100;27;19972;-74
2022/07/14 08:46:06;;;;;;;;;;;23.00;96.00;;;;;;5137610;27;19975;-76
2022/07/14 08:48:31;;;;;;;;;;;23.10;96.90;;;;;;5135127;27;20385;-72
2022/07/14 08:50:57;;;;;;;;;;;23.20;95.70;;;;;;5157614;27;20378;-77
2022/07/14 08:53:23;;;;;;;;;;;23.20;96.10;;;;;;5137440;27;20366;-78
2022/07/14 08:55:49;;;;;;;;;;;23.10;96.60;;;;;;5153456;27;19930;-80
2022/07/14 08:58:15;;;;;;;;;;;23.00;96.70;;;;;;5135724;27;20297;-79
2022/07/14 09:00:40;;;;;;;;;;;23.00;96.80;;;;;;5156051;27;20290;-76
2022/07/14 09:03:06;;;;;;;;;;;22.80;96.80;;;;;;5143134;27;19980;-74
2022/07/14 09:05:31;;;;;;;;;;;22.60;97.40;;;;;;5146934;27;20005;-79
2022/07/14 09:07:57;;;;;;;;;;;22.80;96.30;;;;;;5143241;27;19931;-73
2022/07/14 09:10:24;;;;;;;;;;;23.20;96.40;;;;;;5145943;27;19923;-76
2022/07/14 09:12:51;;;;;;;;;;;23.10;96.30;;;;;;5144539;27;19931;-76
2022/07/14 09:18:12;;;;;;;;;;;23.50;95.30;;;;;;5140143;27;19923;-78
2022/07/14 09:20:38;;;;;;;;;;;24.00;95.80;;;;;;5139915;27;19923;-74
2022/07/14 09:23:04;;;;;;;;;;;24.60;96.10;;;;;;5138403;27;20319;-75
2022/07/14 09:25:31;;;;;;;;;;;24.60;94.40;;;;;;5138886;27;19923;-75
2022/07/14 09:27:56;;;;;;;;;;;24.90;94.10;;;;;;5163760;27;19926;-77
2022/07/14 09:30:23;;;;;;;;;;;24.80;94.40;;;;;;5143113;27;19922;-76
2022/07/14 09:32:51;;;;;;;;;;;24.70;94.00;;;;;;5163175;27;19982;-75
2022/07/14 09:35:27;;;;;;;;;;;24.50;94.10;;;;;;5143899;27;19958;-76
2022/07/14 09:37:53;;;;;;;;;;;24.50;94.10;;;;;;5160983;27;19976;-75
2022/07/14 09:40:25;;;;;;;;;;;24.10;94.90;;;;;;5146050;27;20398;-74
2022/07/14 09:42:52;;;;;;;;;;;24.10;95.20;;;;;;5142218;27;19946;-74
2022/07/14 09:45:19;;;;;;;;;;;24.00;95.40;;;;;;5143995;27;19923;-75
2022/07/14 09:48:04;;;;;;;;;;;24.00;95.70;;;;;;5138424;27;20418;-76
2022/07/14 09:50:40;;;;;;;;;;;24.00;95.10;;;;;;5135588;27;19927;-76
2022/07/14 09:53:25;;;;;;;;;;;24.00;95.60;;;;;;5139257;27;20038;-77
2022/07/14 09:55:54;;;;;;;;;;;24.20;96.00;;;;;;5143442;27;19923;-75
2022/07/14 09:58:24;;;;;;;;;;;24.40;94.80;;;;;;5143917;27;19931;-76
2022/07/14 10:00:54;;;;;;;;;;;24.80;93.90;;;;;;5143904;27;19930;-75
2022/07/14 10:03:20;;;;;;;;;;;24.70;94.00;;;;;;5145321;27;19923;-74
2022/07/14 10:05:47;;;;;;;;;;;24.90;93.80;;;;;;5145337;27;19927;-82
2022/07/14 10:08:14;;;;;;;;;;;24.50;94.20;;;;;;5136346;27;19927;-76
2022/07/14 10:10:40;;;;;;;;;;;24.40;94.00;;;;;;5132613;27;19935;-76
2022/07/14 10:13:05;;;;;;;;;;;24.30;93.40;;;;;;5145157;27;19927;-77
2022/07/14 10:15:34;;;;;;;;;;;23.90;94.60;;;;;;5144050;27;19928;-71
2022/07/14 10:18:01;;;;;;;;;;;23.50;95.20;;;;;;5141352;27;19923;-72
2022/07/14 10:20:27;;;;;;;;;;;23.40;95.00;;;;;;5140904;27;19924;-71
2022/07/14 10:22:56;;;;;;;;;;;23.30;95.10;;;;;;5145868;27;19930;-71
2022/07/14 10:25:22;;;;;;;;;;;23.40;95.00;;;;;;5141907;27;19923;-71
2022/07/14 10:27:48;;;;;;;;;;;23.30;94.60;;;;;;5142802;27;19930;-71
2022/07/14 10:30:14;;;;;;;;;;;23.20;95.00;;;;;;5142450;27;19993;-70
2022/07/14 10:32:39;;;;;;;;;;;23.10;94.20;;;;;;5143700;27;19923;-73
2022/07/14 10:35:05;;;;;;;;;;;22.90;94.70;;;;;;5143156;27;19938;-71
2022/07/14 10:37:30;;;;;;;;;;;22.90;95.10;;;;;;5139671;27;19976;-70
2022/07/14 10:40:01;;;;;;;;;;;22.70;95.40;;;;;;5134296;27;19928;-68
2022/07/14 10:42:27;;;;;;;;;;;22.60;95.70;;;;;;5133326;27;19927;-73
2022/07/14 10:44:52;;;;;;;;;;;22.60;95.80;;;;;;5143853;27;19934;-72
2022/07/14 10:47:19;;;;;;;;;;;22.40;96.10;;;;;;5142135;27;19923;-75
2022/07/14 10:50:02;;;;;;;;;;;22.40;96.40;;;;;;5136970;27;20439;-74
2022/07/14 10:52:29;;;;;;;;;;;22.30;96.20;;;;;;5161848;27;20025;-81
2022/07/14 10:55:13;;;;;;;;;;;22.30;96.40;;;;;;5148635;27;19929;-78
2022/07/14 10:57:39;;;;;;;;;;;22.70;97.10;;;;;;5145647;27;19962;-76
2022/07/14 11:00:06;;;;;;;;;;;23.20;96.00;;;;;;5147270;27;20374;-76
2022/07/14 11:02:33;;;;;;;;;;;23.80;95.30;;;;;;5165389;27;20322;-78
2022/07/14 11:05:06;;;;;;;;;;;24.50;93.80;;;;;;5146909;27;19930;-77
2022/07/14 11:07:38;;;;;;;;;;;25.30;94.30;;;;;;5145783;27;19930;-71
2022/07/14 11:10:19;;;;;;;;;;;26.10;93.90;;;;;;5147954;27;19992;-74
2022/07/14 11:13:00;;;;;;;;;;;26.50;93.20;;;;;;5142564;27;20579;-76
2022/07/14 11:15:45;;;;;;;;;;;26.80;91.50;;;;;;5144542;27;19923;-78
2022/07/14 11:18:14;;;;;;;;;;;27.00;91.60;;;;;;5140055;27;20018;-78
2022/07/14 11:20:59;;;;;;;;;;;27.00;91.90;;;;;;5147678;27;19930;-75
2022/07/14 11:23:27;;;;;;;;;;;26.60;91.20;;;;;;5144792;27;20019;-77
2022/07/14 11:25:53;;;;;;;;;;;26.60;90.90;;;;;;5145812;27;19926;-78
2022/07/14 11:28:31;;;;;;;;;;;26.70;90.90;;;;;;5146824;27;19923;-77
2022/07/14 11:31:12;;;;;;;;;;;26.70;90.90;;;;;;5146801;27;20341;-77
2022/07/14 11:36:23;;;;;;;;;;;26.60;90.30;;;;;;5162503;27;20398;-74
2022/07/14 11:38:49;;;;;;;;;;;26.40;89.40;;;;;;5166301;27;19977;-76
2022/07/14 11:41:14;;;;;;;;;;;26.70;90.90;;;;;;5163193;27;20312;-72
2022/07/14 11:43:40;;;;;;;;;;;26.70;90.10;;;;;;5167078;27;20013;-73
2022/07/14 11:46:10;;;;;;;;;;;27.10;91.00;;;;;;5144647;27;19973;-72
2022/07/14 11:48:37;;;;;;;;;;;27.10;90.20;;;;;;5145628;27;19927;-73
2022/07/14 11:51:04;;;;;;;;;;;27.40;88.60;;;;;;5165821;27;19923;-72
2022/07/14 11:53:31;;;;;;;;;;;27.80;90.00;;;;;;5145009;27;19927;-74
2022/07/14 11:55:57;;;;;;;;;;;27.70;86.00;;;;;;5164683;27;19926;-74
2022/07/14 11:58:23;;;;;;;;;;;27.70;87.10;;;;;;5162449;27;20014;-73
2022/07/14 12:00:53;;;;;;;;;;;27.80;88.90;;;;;;5146936;27;19969;-74
2022/07/14 12:03:18;;;;;;;;;;;27.50;87.60;;;;;;5143457;27;20034;-73
2022/07/14 12:05:50;;;;;;;;;;;27.40;87.10;;;;;;5145112;27;20358;-75
2022/07/14 12:08:20;;;;;;;;;;;27.20;87.40;;;;;;5146869;27;20293;-74
2022/07/14 12:10:45;;;;;;;;;;;27.20;86.50;;;;;;5163627;27;20005;-75
2022/07/14 12:13:11;;;;;;;;;;;27.00;87.50;;;;;;5165348;27;19957;-74
2022/07/14 12:15:37;;;;;;;;;;;27.40;88.30;;;;;;5144618;27;19953;-74
2022/07/14 12:18:04;;;;;;;;;;;27.40;84.90;;;;;;5139488;27;19931;-73
2022/07/14 12:20:38;;;;;;;;;;;27.20;86.90;;;;;;5147333;27;19969;-73
2022/07/14 12:23:04;;;;;;;;;;;27.50;86.80;;;;;;5139085;27;20324;-75
2022/07/14 12:25:34;;;;;;;;;;;27.40;84.50;;;;;;5147458;27;20358;-71
2022/07/14 12:28:00;;;;;;;;;;;27.10;85.10;;;;;;5136538;27;19930;-72
2022/07/14 12:30:44;;;;;;;;;;;27.10;85.60;;;;;;5146682;27;19927;-75
2022/07/14 12:33:11;;;;;;;;;;;26.60;85.00;;;;;;5136807;27;19985;-72
2022/07/14 12:35:37;;;;;;;;;;;27.00;86.70;;;;;;5143736;27;19978;-73
2022/07/14 12:38:02;;;;;;;;;;;27.00;86.10;;;;;;5142441;27;19922;-75
2022/07/14 12:40:28;;;;;;;;;;;26.70;86.90;;;;;;5158205;27;19935;-75
2022/07/14 12:42:54;;;;;;;;;;;26.70;87.20;;;;;;5146191;27;19919;-75
2022/07/14 12:45:19;;;;;;;;;;;26.90;88.90;;;;;;5144266;27;19923;-76
2022/07/14 12:47:49;;;;;;;;;;;26.70;89.00;;;;;;5148092;27;20030;-78
2022/07/14 12:50:19;;;;;;;;;;;26.90;87.80;;;;;;5164750;27;20366;-78
2022/07/14 12:52:49;;;;;;;;;;;26.90;86.80;;;;;;5161798;27;19923;-81
2022/07/14 12:55:30;;;;;;;;;;;27.20;87.30;;;;;;5141205;27;20022;-78
2022/07/14 12:58:06;;;;;;;;;;;26.90;86.90;;;;;;5140596;27;19930;-77
2022/07/14 13:00:32;;;;;;;;;;;27.10;87.30;;;;;;5139489;27;19923;-85
2022/07/14 13:03:14;;;;;;;;;;;26.90;86.90;;;;;;5161170;27;19930;-78
2022/07/14 13:05:54;;;;;;;;;;;26.60;85.00;;;;;;5140428;27;20297;-78
2022/07/14 13:08:32;;;;;;;;;;;26.50;84.70;;;;;;5162224;27;19923;-79
2022/07/14 13:10:58;;;;;;;;;;;26.50;87.00;;;;;;5156974;27;19923;-78
2022/07/14 13:13:36;;;;;;;;;;;26.30;86.90;;;;;;5163288;27;19923;-80
2022/07/14 13:16:16;;;;;;;;;;;26.50;87.30;;;;;;5138735;27;19923;-79
2022/07/14 13:19:00;;;;;;;;;;;26.60;85.60;;;;;;5162552;27;19923;-80
2022/07/14 13:21:44;;;;;;;;;;;26.50;86.60;;;;;;5157342;27;19976;-79
2022/07/14 13:24:13;;;;;;;;;;;26.40;86.70;;;;;;5141409;27;19930;-79
2022/07/14 13:26:39;;;;;;;;;;;26.30;84.50;;;;;;5162546;27;19923;-78
2022/07/14 13:29:07;;;;;;;;;;;26.30;85.40;;;;;;5161043;27;20370;-79
2022/07/14 13:31:33;;;;;;;;;;;26.10;84.30;;;;;;5144109;27;19923;-78
2022/07/14 13:34:00;;;;;;;;;;;25.90;83.80;;;;;;5167678;27;19975;-79
2022/07/14 13:36:26;;;;;;;;;;;26.00;83.80;;;;;;5166176;27;19924;-80
2022/07/14 13:38:51;;;;;;;;;;;26.10;84.60;;;;;;5168037;27;19923;-79
2022/07/14 13:41:18;;;;;;;;;;;26.30;83.90;;;;;;5150742;27;19971;-78
2022/07/14 13:43:44;;;;;;;;;;;26.30;83.70;;;;;;5165484;27;19926;-79
2022/07/14 13:46:10;;;;;;;;;;;26.20;82.70;;;;;;5163828;27;20301;-79
2022/07/14 13:48:36;;;;;;;;;;;25.80;83.60;;;;;;5167325;27;19995;-80
2022/07/14 13:53:46;;;;;;;;;;;25.80;84.60;;;;;;5160926;27;20013;-79
2022/07/14 13:56:12;;;;;;;;;;;25.70;86.20;;;;;;5146878;27;20083;-79
2022/07/14 13:58:37;;;;;;;;;;;25.80;87.80;;;;;;5170460;27;19923;-80
2022/07/14 14:01:03;;;;;;;;;;;25.90;88.10;;;;;;5144240;27;19923;-80
2022/07/14 14:03:28;;;;;;;;;;;25.90;87.90;;;;;;5167399;27;19929;-79
2022/07/14 14:05:59;;;;;;;;;;;25.80;90.00;;;;;;5164589;27;19923;-78
2022/07/14 14:08:26;;;;;;;;;;;25.70;89.90;;;;;;5149068;27;19923;-78
2022/07/14 14:10:51;;;;;;;;;;;25.90;90.80;;;;;;5145913;27;19927;-79
2022/07/14 14:13:19;;;;;;;;;;;25.60;89.90;;;;;;5145790;27;19946;-69
2022/07/14 14:15:45;;;;;;;;;;;25.30;90.20;;;;;;5147866;27;20352;-71
2022/07/14 14:18:10;;;;;;;;;;;25.10;90.80;;;;;;5143739;27;20402;-68
2022/07/14 14:20:36;;;;;;;;;;;24.80;90.80;;;;;;5145264;27;19931;-67
2022/07/14 14:23:07;;;;;;;;;;;24.70;91.60;;;;;;5143255;27;19923;-67
2022/07/14 14:25:34;;;;;;;;;;;24.90;91.80;;;;;;5147086;27;19929;-68
2022/07/14 14:28:00;;;;;;;;;;;24.90;92.30;;;;;;5149468;27;19923;-67
2022/07/14 14:30:26;;;;;;;;;;;25.00;92.20;;;;;;5165691;27;19930;-68
2022/07/14 14:32:51;;;;;;;;;;;25.20;91.70;;;;;;5148216;27;19923;-69
2022/07/14 14:35:17;;;;;;;;;;;25.10;91.60;;;;;;5164932;27;19968;-69
2022/07/14 14:37:42;;;;;;;;;;;24.90;92.10;;;;;;5144921;27;19930;-69